Time;durP1;ratioP1;P1;durP2;ratioP2;P2;SDS_P1;SDS_P2;PMS_P1;PMS_P2;Temp;Humidity;BMP_temperature;BMP_pressure;BME280_temperature;BME280_humidity;BME280_pressure;Samples;Min_cycle;Max_cycle;Signal;HPM_P1;HPM_P2
2023/06/22 00:00:56;;;;;;;10.80;4.47;;;;;;;;;;5011757;28;20076;-75
2023/06/22 00:03:24;;;;;;;14.02;4.95;;;;;;;;;;5011674;28;20022;-75
2023/06/22 00:05:50;;;;;;;11.10;4.88;;;;;;;;;;5011760;28;20056;-76
2023/06/22 00:08:16;;;;;;;8.95;4.82;;;;;;;;;;5011655;28;20388;-77
2023/06/22 00:10:42;;;;;;;8.50;4.93;;;;;;;;;;5010648;28;20096;-76
2023/06/22 00:13:09;;;;;;;7.22;4.38;;;;;;;;;;5011712;28;20451;-75
2023/06/22 00:15:35;;;;;;;9.25;4.85;;;;;;;;;;5010354;28;20037;-75
2023/06/22 00:18:02;;;;;;;7.03;4.20;;;;;;;;;;5011794;28;20026;-76
2023/06/22 00:20:28;;;;;;;8.63;4.93;;;;;;;;;;5010390;28;20052;-76
2023/06/22 00:22:58;;;;;;;12.75;4.65;;;;;;;;;;5010425;28;20507;-76
2023/06/22 00:25:23;;;;;;;9.07;4.50;;;;;;;;;;5010723;28;20033;-76
2023/06/22 00:27:49;;;;;;;8.63;4.30;;;;;;;;;;5010353;28;20372;-77
2023/06/22 00:30:19;;;;;;;8.73;5.10;;;;;;;;;;5009868;28;20048;-76
2023/06/22 00:32:45;;;;;;;8.30;4.72;;;;;;;;;;5010188;28;20033;-76
2023/06/22 00:35:12;;;;;;;6.78;4.55;;;;;;;;;;5011102;28;20034;-76
2023/06/22 00:37:41;;;;;;;11.45;4.93;;;;;;;;;;5009760;28;20022;-76
2023/06/22 00:40:11;;;;;;;7.90;4.80;;;;;;;;;;5011200;28;20033;-76
2023/06/22 00:42:38;;;;;;;10.65;4.65;;;;;;;;;;5011441;28;20393;-76
2023/06/22 00:45:05;;;;;;;10.30;5.25;;;;;;;;;;5009783;28;20382;-76
2023/06/22 00:47:30;;;;;;;8.98;5.03;;;;;;;;;;5009764;28;20143;-76
2023/06/22 00:49:56;;;;;;;9.45;4.78;;;;;;;;;;5009701;28;20058;-76
2023/06/22 00:52:27;;;;;;;10.40;4.65;;;;;;;;;;5012468;28;20034;-76
2023/06/22 00:54:53;;;;;;;9.13;5.50;;;;;;;;;;5004838;28;20026;-76
2023/06/22 00:57:20;;;;;;;8.20;4.88;;;;;;;;;;4990803;28;20068;-76
2023/06/22 00:59:47;;;;;;;12.98;5.15;;;;;;;;;;4989928;28;20356;-76
2023/06/22 01:02:13;;;;;;;8.18;5.10;;;;;;;;;;4990914;28;20130;-76
2023/06/22 01:04:39;;;;;;;11.02;5.65;;;;;;;;;;4990068;28;20164;-77
2023/06/22 01:07:19;;;;;;;11.43;5.18;;;;;;;;;;4989340;28;20558;-75
2023/06/22 01:09:54;;;;;;;10.38;4.78;;;;;;;;;;4990788;28;20026;-76
2023/06/22 01:12:20;;;;;;;8.65;4.45;;;;;;;;;;4990879;28;20034;-75
2023/06/22 01:14:57;;;;;;;8.65;4.18;;;;;;;;;;4989225;28;20033;-75
2023/06/22 01:17:23;;;;;;;7.85;4.53;;;;;;;;;;4989921;28;20467;-75
2023/06/22 01:19:55;;;;;;;9.35;4.80;;;;;;;;;;4991783;28;20045;-76
2023/06/22 01:22:23;;;;;;;9.35;5.35;;;;;;;;;;4991657;28;20054;-76
2023/06/22 01:24:54;;;;;;;8.38;4.90;;;;;;;;;;4989666;28;20022;-76
2023/06/22 01:27:31;;;;;;;8.52;4.72;;;;;;;;;;4973154;28;20108;-75
2023/06/22 01:30:00;;;;;;;12.10;5.57;;;;;;;;;;4990991;28;20061;-77
2023/06/22 01:32:35;;;;;;;6.88;4.45;;;;;;;;;;4990238;28;20039;-76
2023/06/22 01:35:03;;;;;;;7.78;4.60;;;;;;;;;;4989839;28;20057;-76
2023/06/22 01:37:31;;;;;;;8.63;5.10;;;;;;;;;;4988982;28;20038;-76
2023/06/22 01:39:58;;;;;;;8.45;5.13;;;;;;;;;;4989286;28;20023;-76
2023/06/22 01:42:25;;;;;;;7.40;4.57;;;;;;;;;;4990689;28;20034;-76
2023/06/22 01:44:54;;;;;;;6.78;4.57;;;;;;;;;;4991114;28;20085;-76
2023/06/22 01:47:21;;;;;;;9.35;6.63;;;;;;;;;;4990363;28;20034;-76
2023/06/22 01:49:48;;;;;;;9.77;5.20;;;;;;;;;;4992742;28;20060;-76
2023/06/22 01:52:14;;;;;;;7.78;5.22;;;;;;;;;;4990712;28;20038;-77
2023/06/22 01:54:40;;;;;;;14.05;5.32;;;;;;;;;;4992215;28;20030;-75
2023/06/22 01:57:06;;;;;;;10.75;5.20;;;;;;;;;;4991243;28;20030;-77
2023/06/22 01:59:37;;;;;;;10.85;4.80;;;;;;;;;;4991357;28;20026;-77
2023/06/22 02:02:19;;;;;;;9.80;4.43;;;;;;;;;;4991145;28;20030;-76
2023/06/22 02:04:51;;;;;;;8.30;4.88;;;;;;;;;;4990176;28;20049;-77
2023/06/22 02:07:18;;;;;;;10.00;6.03;;;;;;;;;;4990698;28;20026;-77
2023/06/22 02:09:45;;;;;;;11.98;6.05;;;;;;;;;;4989450;28;20661;-77
2023/06/22 02:12:13;;;;;;;10.35;5.18;;;;;;;;;;4989043;28;20057;-76
2023/06/22 02:14:39;;;;;;;10.85;6.72;;;;;;;;;;4989214;28;20375;-77
2023/06/22 02:17:08;;;;;;;6.85;4.88;;;;;;;;;;4990481;28;20038;-77
2023/06/22 02:19:37;;;;;;;9.43;5.50;;;;;;;;;;4988736;28;20058;-77
2023/06/22 02:22:04;;;;;;;9.20;5.05;;;;;;;;;;4990121;28;20070;-77
2023/06/22 02:24:31;;;;;;;8.68;5.18;;;;;;;;;;4989336;28;20056;-77
2023/06/22 02:27:01;;;;;;;8.98;5.07;;;;;;;;;;4990473;28;20034;-76
2023/06/22 02:29:27;;;;;;;8.80;5.05;;;;;;;;;;4989952;28;20022;-76
2023/06/22 02:31:54;;;;;;;8.48;5.07;;;;;;;;;;4988466;28;20038;-76
2023/06/22 02:34:20;;;;;;;8.70;4.90;;;;;;;;;;4988363;28;20077;-76
2023/06/22 02:36:50;;;;;;;8.27;5.20;;;;;;;;;;4988979;28;20026;-76
2023/06/22 02:39:24;;;;;;;11.90;7.30;;;;;;;;;;4989435;28;20041;-76
2023/06/22 02:41:50;;;;;;;9.07;5.50;;;;;;;;;;5002363;28;20048;-76
2023/06/22 02:44:16;;;;;;;8.25;5.05;;;;;;;;;;5007836;28;20057;-76
2023/06/22 02:46:42;;;;;;;8.57;5.20;;;;;;;;;;4990090;28;20022;-78
2023/06/22 02:49:08;;;;;;;13.57;5.30;;;;;;;;;;4991283;28;20087;-77
2023/06/22 02:51:34;;;;;;;12.10;6.95;;;;;;;;;;4991270;28;20049;-77
2023/06/22 02:54:00;;;;;;;15.98;6.13;;;;;;;;;;4991901;28;20026;-76
2023/06/22 02:56:26;;;;;;;11.43;5.22;;;;;;;;;;4978730;28;20037;-76
2023/06/22 02:58:53;;;;;;;14.45;7.97;;;;;;;;;;4997464;28;20395;-76
2023/06/22 03:01:24;;;;;;;10.38;6.53;;;;;;;;;;4999099;28;20459;-76
2023/06/22 03:03:50;;;;;;;11.23;6.18;;;;;;;;;;4999647;28;20054;-74
2023/06/22 03:06:16;;;;;;;10.02;6.68;;;;;;;;;;5000106;28;20034;-76
2023/06/22 03:08:41;;;;;;;8.73;6.40;;;;;;;;;;4991709;28;20041;-75
2023/06/22 03:11:07;;;;;;;13.25;6.10;;;;;;;;;;4988879;28;20026;-75
2023/06/22 03:13:33;;;;;;;9.32;5.75;;;;;;;;;;4989031;28;20113;-76
2023/06/22 03:15:59;;;;;;;13.48;5.55;;;;;;;;;;4992944;28;20471;-76
2023/06/22 03:18:24;;;;;;;9.73;5.45;;;;;;;;;;4993599;28;20026;-76
2023/06/22 03:20:50;;;;;;;12.38;6.32;;;;;;;;;;4991848;28;20101;-76
2023/06/22 03:23:15;;;;;;;13.25;6.47;;;;;;;;;;4993432;28;20507;-76
2023/06/22 03:25:44;;;;;;;11.80;5.47;;;;;;;;;;4993717;28;20044;-76
2023/06/22 03:28:10;;;;;;;13.57;5.85;;;;;;;;;;4976970;28;20022;-76
2023/06/22 03:30:36;;;;;;;12.23;5.57;;;;;;;;;;4992470;28;20581;-76
2023/06/22 03:33:01;;;;;;;10.75;5.70;;;;;;;;;;4991279;28;20481;-76
2023/06/22 03:35:27;;;;;;;9.43;5.15;;;;;;;;;;4991716;28;20049;-77
2023/06/22 03:37:53;;;;;;;10.13;5.20;;;;;;;;;;4991656;28;20027;-77
2023/06/22 03:40:19;;;;;;;11.65;5.68;;;;;;;;;;4991798;28;20015;-77
2023/06/22 03:42:45;;;;;;;13.77;6.25;;;;;;;;;;4992871;28;20143;-77
2023/06/22 03:45:11;;;;;;;10.98;5.43;;;;;;;;;;4991602;28;20124;-76
2023/06/22 03:47:37;;;;;;;9.20;4.78;;;;;;;;;;4993333;28;20101;-76
2023/06/22 03:50:03;;;;;;;14.65;5.28;;;;;;;;;;4992797;28;20019;-76
2023/06/22 03:52:30;;;;;;;9.73;5.78;;;;;;;;;;4991035;28;20030;-76
2023/06/22 03:54:55;;;;;;;13.40;6.22;;;;;;;;;;4992735;28;20555;-76
2023/06/22 03:57:21;;;;;;;13.57;5.90;;;;;;;;;;4992506;28;20034;-77
2023/06/22 03:59:46;;;;;;;11.95;5.72;;;;;;;;;;4992726;28;20529;-77
2023/06/22 04:02:12;;;;;;;7.65;5.05;;;;;;;;;;4991976;28;20034;-76
2023/06/22 04:04:39;;;;;;;9.38;5.38;;;;;;;;;;4991773;28;20129;-76
2023/06/22 04:07:04;;;;;;;9.85;5.95;;;;;;;;;;4993393;28;20022;-77
2023/06/22 04:09:30;;;;;;;12.13;5.97;;;;;;;;;;4991580;28;20209;-76
2023/06/22 04:11:55;;;;;;;12.13;6.50;;;;;;;;;;4992425;28;20045;-76
2023/06/22 04:14:21;;;;;;;15.60;6.28;;;;;;;;;;4991942;28;20030;-77
2023/06/22 04:16:46;;;;;;;16.50;7.30;;;;;;;;;;4974660;28;20046;-77
2023/06/22 04:19:16;;;;;;;12.52;7.18;;;;;;;;;;4992133;28;20513;-77
2023/06/22 04:21:43;;;;;;;12.55;6.60;;;;;;;;;;4990894;28;20022;-76
2023/06/22 04:24:08;;;;;;;11.65;6.55;;;;;;;;;;4990586;28;20046;-75
2023/06/22 04:26:36;;;;;;;14.68;8.13;;;;;;;;;;4991506;28;20034;-77
2023/06/22 04:29:05;;;;;;;12.95;7.75;;;;;;;;;;4990478;28;20524;-76
2023/06/22 04:31:31;;;;;;;14.90;6.25;;;;;;;;;;4990210;28;20113;-76
2023/06/22 04:34:05;;;;;;;13.85;6.88;;;;;;;;;;4992004;28;20104;-76
2023/06/22 04:36:37;;;;;;;12.60;7.00;;;;;;;;;;4990994;28;20046;-77
2023/06/22 04:39:09;;;;;;;13.70;6.72;;;;;;;;;;4991578;28;20028;-76
2023/06/22 04:41:42;;;;;;;13.25;6.55;;;;;;;;;;4991680;28;20033;-76
2023/06/22 04:44:11;;;;;;;11.60;6.78;;;;;;;;;;4991143;28;20109;-76
2023/06/22 04:46:38;;;;;;;14.00;5.28;;;;;;;;;;4992006;28;20045;-76
2023/06/22 04:49:09;;;;;;;9.00;5.72;;;;;;;;;;4957832;28;20027;-76
2023/06/22 04:51:40;;;;;;;12.32;5.72;;;;;;;;;;4989629;28;20032;-77
2023/06/22 04:54:06;;;;;;;9.32;5.38;;;;;;;;;;4990029;28;20050;-77
2023/06/22 04:56:32;;;;;;;13.77;6.78;;;;;;;;;;4989839;28;20685;-76
2023/06/22 04:58:58;;;;;;;7.00;4.90;;;;;;;;;;4991902;28;20081;-77
2023/06/22 05:01:25;;;;;;;8.77;5.35;;;;;;;;;;4990622;28;20030;-77
2023/06/22 05:03:51;;;;;;;8.15;5.07;;;;;;;;;;4991796;28;20030;-76
2023/06/22 05:06:17;;;;;;;6.20;4.65;;;;;;;;;;5014827;28;20026;-77
2023/06/22 05:08:44;;;;;;;11.45;5.40;;;;;;;;;;4996303;28;20525;-77
2023/06/22 05:11:10;;;;;;;10.07;5.40;;;;;;;;;;4991077;28;20551;-77
2023/06/22 05:13:36;;;;;;;8.35;5.15;;;;;;;;;;4997722;28;20022;-76
2023/06/22 05:16:01;;;;;;;6.90;5.32;;;;;;;;;;4997347;28;20533;-78
2023/06/22 05:18:31;;;;;;;8.43;5.22;;;;;;;;;;5004878;28;20031;-76
2023/06/22 05:20:59;;;;;;;10.68;7.13;;;;;;;;;;5005718;28;20054;-80
2023/06/22 05:23:24;;;;;;;15.50;6.03;;;;;;;;;;5006117;28;20045;-81
2023/06/22 05:25:51;;;;;;;13.55;5.50;;;;;;;;;;4999453;28;20029;-83
2023/06/22 05:28:16;;;;;;;10.90;5.55;;;;;;;;;;5010057;28;20021;-81
2023/06/22 05:30:43;;;;;;;8.68;5.68;;;;;;;;;;5010438;28;20038;-83
2023/06/22 05:33:09;;;;;;;12.35;5.85;;;;;;;;;;4997043;28;20036;-81
2023/06/22 05:35:34;;;;;;;10.10;5.82;;;;;;;;;;5005285;28;20034;-84
2023/06/22 05:37:59;;;;;;;10.63;6.22;;;;;;;;;;5001779;28;20030;-79
2023/06/22 05:40:27;;;;;;;12.05;6.32;;;;;;;;;;5007367;28;20030;-80
2023/06/22 05:42:52;;;;;;;11.30;5.85;;;;;;;;;;4996957;28;20061;-80
2023/06/22 05:45:18;;;;;;;14.95;7.00;;;;;;;;;;5001766;28;20667;-79
2023/06/22 05:47:43;;;;;;;15.27;7.95;;;;;;;;;;4996458;28;20666;-80
2023/06/22 05:50:09;;;;;;;14.32;6.45;;;;;;;;;;5004093;28;20109;-79
2023/06/22 05:52:35;;;;;;;13.45;7.60;;;;;;;;;;4990579;28;21061;-79
2023/06/22 05:55:02;;;;;;;14.23;7.55;;;;;;;;;;4988940;28;21318;-80
2023/06/22 05:57:27;;;;;;;11.75;7.63;;;;;;;;;;4997182;28;20556;-81
2023/06/22 05:59:53;;;;;;;13.55;7.25;;;;;;;;;;4994092;28;20125;-82
2023/06/22 06:02:19;;;;;;;13.35;6.93;;;;;;;;;;5007764;28;20094;-82
2023/06/22 06:04:45;;;;;;;11.80;6.20;;;;;;;;;;5016939;28;20098;-82
2023/06/22 06:07:13;;;;;;;10.85;6.90;;;;;;;;;;5022106;28;20030;-80
2023/06/22 06:09:39;;;;;;;11.55;6.75;;;;;;;;;;5016989;28;20026;-79
2023/06/22 06:12:08;;;;;;;11.00;6.80;;;;;;;;;;4985426;28;20031;-81
2023/06/22 06:14:33;;;;;;;16.38;11.43;;;;;;;;;;5007829;28;20048;-81
2023/06/22 06:17:00;;;;;;;14.32;7.70;;;;;;;;;;5027543;28;20026;-80
2023/06/22 06:19:27;;;;;;;13.10;8.07;;;;;;;;;;4979277;28;20077;-82
2023/06/22 06:21:55;;;;;;;10.32;7.80;;;;;;;;;;4996729;28;20133;-80
2023/06/22 06:24:21;;;;;;;13.10;7.90;;;;;;;;;;5008029;28;20445;-82
2023/06/22 06:26:51;;;;;;;12.20;7.35;;;;;;;;;;5005720;28;20042;-81
2023/06/22 06:29:29;;;;;;;14.60;8.27;;;;;;;;;;5004821;28;20451;-80
2023/06/22 06:31:55;;;;;;;12.27;7.63;;;;;;;;;;5001300;28;20038;-79
2023/06/22 06:34:22;;;;;;;14.52;7.63;;;;;;;;;;5009496;28;20026;-79
2023/06/22 06:36:48;;;;;;;15.98;7.53;;;;;;;;;;5010203;28;20129;-81
2023/06/22 06:39:18;;;;;;;18.20;8.95;;;;;;;;;;4992231;28;20496;-78
2023/06/22 06:41:44;;;;;;;22.98;11.88;;;;;;;;;;5006007;28;20038;-77
2023/06/22 06:44:13;;;;;;;16.05;8.80;;;;;;;;;;5012603;28;20099;-76
2023/06/22 06:46:45;;;;;;;14.27;8.68;;;;;;;;;;5008568;28;20026;-79
2023/06/22 06:49:11;;;;;;;16.05;7.10;;;;;;;;;;5001877;28;20034;-79
2023/06/22 06:51:43;;;;;;;13.50;8.98;;;;;;;;;;5005597;28;20029;-78
2023/06/22 06:54:10;;;;;;;15.88;7.78;;;;;;;;;;5006019;28;20025;-76
2023/06/22 06:56:47;;;;;;;21.65;12.88;;;;;;;;;;4991090;28;20040;-78
2023/06/22 06:59:17;;;;;;;15.48;9.90;;;;;;;;;;5001684;28;20048;-76
2023/06/22 07:01:56;;;;;;;21.13;9.20;;;;;;;;;;4996976;28;20026;-76
2023/06/22 07:04:22;;;;;;;15.52;9.18;;;;;;;;;;4993541;28;20022;-77
2023/06/22 07:06:48;;;;;;;16.25;8.98;;;;;;;;;;5002713;28;20044;-76
2023/06/22 07:09:14;;;;;;;12.90;8.55;;;;;;;;;;5002618;28;20045;-77
2023/06/22 07:11:41;;;;;;;17.15;9.32;;;;;;;;;;5009668;28;20030;-78
2023/06/22 07:14:07;;;;;;;15.27;8.57;;;;;;;;;;4994434;28;20123;-77
2023/06/22 07:16:33;;;;;;;16.58;9.38;;;;;;;;;;5002737;28;20462;-78
2023/06/22 07:19:00;;;;;;;17.73;9.35;;;;;;;;;;5003716;28;20029;-79
2023/06/22 07:21:29;;;;;;;26.73;11.82;;;;;;;;;;5002481;28;20045;-76
2023/06/22 07:23:56;;;;;;;23.52;8.93;;;;;;;;;;5025529;28;20074;-76
2023/06/22 07:26:45;;;;;;;19.42;9.38;;;;;;;;;;5019281;28;20452;-78
2023/06/22 07:29:35;;;;;;;18.00;8.80;;;;;;;;;;4991106;28;20030;-76
2023/06/22 07:32:04;;;;;;;12.93;8.95;;;;;;;;;;5002077;28;20025;-78
2023/06/22 07:34:33;;;;;;;14.13;9.05;;;;;;;;;;5001687;28;20022;-76
2023/06/22 07:37:00;;;;;;;18.85;8.75;;;;;;;;;;5003918;28;20054;-79
2023/06/22 07:39:28;;;;;;;15.20;7.88;;;;;;;;;;5005040;28;20022;-80
2023/06/22 07:41:54;;;;;;;16.27;8.18;;;;;;;;;;4999584;28;20033;-77
2023/06/22 07:44:23;;;;;;;13.88;7.93;;;;;;;;;;5006825;28;20109;-78
2023/06/22 07:46:50;;;;;;;13.98;8.20;;;;;;;;;;5008584;28;20029;-78
2023/06/22 07:49:17;;;;;;;16.27;7.82;;;;;;;;;;5023337;28;20034;-79
2023/06/22 07:51:46;;;;;;;13.82;8.32;;;;;;;;;;5010309;28;20040;-82
2023/06/22 07:54:12;;;;;;;14.27;7.63;;;;;;;;;;5005497;28;20108;-82
2023/06/22 07:56:48;;;;;;;12.88;7.30;;;;;;;;;;4992273;28;20030;-80
2023/06/22 07:59:17;;;;;;;12.40;7.22;;;;;;;;;;4991692;28;20093;-77
2023/06/22 08:01:43;;;;;;;13.80;8.90;;;;;;;;;;4997296;28;20026;-81
2023/06/22 08:04:09;;;;;;;10.93;7.07;;;;;;;;;;5002251;28;20072;-78
2023/06/22 08:06:34;;;;;;;11.75;7.97;;;;;;;;;;5005757;28;20033;-79
2023/06/22 08:09:03;;;;;;;16.88;8.43;;;;;;;;;;5019580;28;20442;-77
2023/06/22 08:11:32;;;;;;;11.88;8.30;;;;;;;;;;5002715;28;20030;-81
2023/06/22 08:13:58;;;;;;;13.68;8.40;;;;;;;;;;5006942;28;20038;-78
2023/06/22 08:16:24;;;;;;;16.00;8.10;;;;;;;;;;5007494;28;20426;-79
2023/06/22 08:18:51;;;;;;;12.07;7.72;;;;;;;;;;4996585;28;20030;-77
2023/06/22 08:21:20;;;;;;;9.20;7.22;;;;;;;;;;4996795;28;20027;-80
2023/06/22 08:23:48;;;;;;;7.82;6.90;;;;;;;;;;4995949;28;20050;-78
2023/06/22 08:26:16;;;;;;;9.38;7.78;;;;;;;;;;4987388;28;20373;-78
2023/06/22 08:28:41;;;;;;;11.52;8.43;;;;;;;;;;4996586;28;20022;-77
2023/06/22 08:31:08;;;;;;;11.02;7.00;;;;;;;;;;4996890;28;20148;-79
2023/06/22 08:33:36;;;;;;;13.23;8.88;;;;;;;;;;4998847;28;20026;-78
2023/06/22 08:36:02;;;;;;;12.32;7.05;;;;;;;;;;5013625;28;20036;-78
2023/06/22 08:38:35;;;;;;;11.30;7.60;;;;;;;;;;5002554;28;20045;-81
2023/06/22 08:41:01;;;;;;;9.55;7.00;;;;;;;;;;4997271;28;20037;-79
2023/06/22 08:43:27;;;;;;;12.25;7.43;;;;;;;;;;5003165;28;20026;-79
2023/06/22 08:45:54;;;;;;;18.23;7.10;;;;;;;;;;4993976;28;20040;-78
2023/06/22 08:48:20;;;;;;;11.82;7.40;;;;;;;;;;4986032;28;20179;-78
2023/06/22 08:50:47;;;;;;;12.02;7.22;;;;;;;;;;4989203;28;20056;-80
2023/06/22 08:53:14;;;;;;;19.10;8.05;;;;;;;;;;4995825;28;20499;-78
2023/06/22 08:55:40;;;;;;;11.65;7.78;;;;;;;;;;4998956;28;20049;-79
2023/06/22 08:58:08;;;;;;;12.50;7.72;;;;;;;;;;5007654;28;20398;-80
2023/06/22 09:00:35;;;;;;;13.15;9.18;;;;;;;;;;4995926;28;20061;-80
2023/06/22 09:03:02;;;;;;;12.38;6.65;;;;;;;;;;4993143;28;20057;-80
2023/06/22 09:05:28;;;;;;;11.10;7.30;;;;;;;;;;4993833;28;20378;-77
2023/06/22 09:07:58;;;;;;;9.23;7.68;;;;;;;;;;4995524;28;20030;-79
2023/06/22 09:10:26;;;;;;;8.95;7.03;;;;;;;;;;4989591;28;20038;-76
2023/06/22 09:12:53;;;;;;;12.05;7.13;;;;;;;;;;4981847;28;20240;-81
2023/06/22 09:15:19;;;;;;;10.18;6.70;;;;;;;;;;4982715;28;20398;-77
2023/06/22 09:17:46;;;;;;;11.63;7.93;;;;;;;;;;5003326;28;20486;-78
2023/06/22 09:20:12;;;;;;;22.63;7.47;;;;;;;;;;4998171;28;20034;-78
2023/06/22 09:22:38;;;;;;;16.73;8.10;;;;;;;;;;4990821;28;20077;-80
2023/06/22 09:25:05;;;;;;;11.68;6.82;;;;;;;;;;4993065;28;20407;-80
2023/06/22 09:27:31;;;;;;;15.35;8.57;;;;;;;;;;4998617;28;20140;-77
2023/06/22 09:30:07;;;;;;;10.63;6.80;;;;;;;;;;4999973;28;20426;-77
2023/06/22 09:32:36;;;;;;;10.05;6.75;;;;;;;;;;4991744;28;20057;-78
2023/06/22 09:35:12;;;;;;;11.23;7.20;;;;;;;;;;4992974;28;20121;-79
2023/06/22 09:37:41;;;;;;;10.13;6.93;;;;;;;;;;4989696;28;20129;-79
2023/06/22 09:40:12;;;;;;;10.27;7.43;;;;;;;;;;4999652;28;20116;-79
2023/06/22 09:42:43;;;;;;;9.50;6.88;;;;;;;;;;4999414;28;20022;-80
2023/06/22 09:45:11;;;;;;;10.68;7.13;;;;;;;;;;5003942;28;20037;-78
2023/06/22 09:48:20;;;;;;;8.40;6.95;;;;;;;;;;5000407;28;20065;-78
2023/06/22 09:50:48;;;;;;;15.68;7.82;;;;;;;;;;4995761;28;20060;-81
2023/06/22 09:53:14;;;;;;;10.40;6.90;;;;;;;;;;5005959;28;20591;-80
2023/06/22 09:55:51;;;;;;;8.07;6.60;;;;;;;;;;5008900;28;20465;-77
2023/06/22 09:58:18;;;;;;;13.95;8.13;;;;;;;;;;4995505;28;20030;-78
2023/06/22 10:00:47;;;;;;;9.52;6.97;;;;;;;;;;5003631;28;20027;-78
2023/06/22 10:03:13;;;;;;;8.40;6.43;;;;;;;;;;4985486;28;20550;-77
2023/06/22 10:05:38;;;;;;;12.20;7.70;;;;;;;;;;4985438;28;20739;-77
2023/06/22 10:08:12;;;;;;;15.40;7.45;;;;;;;;;;4996612;28;20141;-80
2023/06/22 10:10:43;;;;;;;11.80;7.22;;;;;;;;;;4993454;28;20103;-78
2023/06/22 10:13:12;;;;;;;9.57;7.50;;;;;;;;;;4994145;28;20030;-83
2023/06/22 10:15:39;;;;;;;7.72;6.75;;;;;;;;;;5003200;28;20044;-79
2023/06/22 10:18:06;;;;;;;12.95;7.80;;;;;;;;;;4997474;28;20472;-78
2023/06/22 10:20:32;;;;;;;11.07;7.68;;;;;;;;;;4992241;28;20037;-80
2023/06/22 10:22:58;;;;;;;14.20;8.00;;;;;;;;;;4987858;28;20064;-79
2023/06/22 10:25:27;;;;;;;13.10;8.23;;;;;;;;;;4996349;28;20076;-76
2023/06/22 10:27:53;;;;;;;10.88;7.03;;;;;;;;;;5001077;28;20030;-77
2023/06/22 10:30:19;;;;;;;10.02;6.93;;;;;;;;;;5015276;28;20033;-78
2023/06/22 10:32:45;;;;;;;13.25;6.95;;;;;;;;;;4995512;28;20034;-80
2023/06/22 10:35:13;;;;;;;9.80;7.22;;;;;;;;;;5010924;28;20145;-78
2023/06/22 10:37:39;;;;;;;9.40;6.85;;;;;;;;;;5004378;28;20036;-79
2023/06/22 10:40:08;;;;;;;12.35;7.40;;;;;;;;;;4996194;28;20030;-77
2023/06/22 10:42:35;;;;;;;13.15;7.28;;;;;;;;;;4999544;28;20077;-80
2023/06/22 10:45:01;;;;;;;8.90;7.40;;;;;;;;;;5000563;28;20042;-78
2023/06/22 10:47:27;;;;;;;14.63;7.53;;;;;;;;;;4999487;28;20033;-79
2023/06/22 10:49:53;;;;;;;12.52;8.05;;;;;;;;;;5001282;28;20026;-81
2023/06/22 10:52:18;;;;;;;9.50;7.55;;;;;;;;;;5000468;28;20035;-77
2023/06/22 10:54:47;;;;;;;10.05;8.02;;;;;;;;;;4999470;28;20363;-80
2023/06/22 10:57:13;;;;;;;12.18;7.40;;;;;;;;;;4994646;28;20030;-79
2023/06/22 11:00:08;;;;;;;12.32;8.20;;;;;;;;;;5006396;28;20023;-78
2023/06/22 11:02:34;;;;;;;15.85;8.40;;;;;;;;;;5004867;28;20054;-81
2023/06/22 11:05:00;;;;;;;11.18;8.07;;;;;;;;;;5005629;28;20031;-78
2023/06/22 11:07:48;;;;;;;10.60;7.03;;;;;;;;;;5010287;28;20026;-77
2023/06/22 11:10:17;;;;;;;11.63;7.53;;;;;;;;;;5006262;28;20030;-78
2023/06/22 11:12:43;;;;;;;12.93;7.47;;;;;;;;;;4981778;28;20400;-80
2023/06/22 11:15:09;;;;;;;8.88;7.20;;;;;;;;;;5006404;28;20052;-79
2023/06/22 11:17:37;;;;;;;20.05;7.35;;;;;;;;;;5004591;28;20124;-77
2023/06/22 11:20:14;;;;;;;12.98;7.35;;;;;;;;;;4994398;28;20157;-78
2023/06/22 11:22:46;;;;;;;13.70;8.10;;;;;;;;;;5000612;28;20037;-76
2023/06/22 11:25:16;;;;;;;8.85;7.47;;;;;;;;;;5001416;28;20044;-80
2023/06/22 11:28:07;;;;;;;16.20;7.65;;;;;;;;;;5001865;28;20034;-78
2023/06/22 11:30:36;;;;;;;9.02;7.53;;;;;;;;;;4995075;28;20060;-79
2023/06/22 11:33:02;;;;;;;11.90;8.05;;;;;;;;;;4995029;28;20061;-78
2023/06/22 11:35:37;;;;;;;9.98;7.35;;;;;;;;;;4992248;28;20048;-80
2023/06/22 11:38:08;;;;;;;10.82;8.65;;;;;;;;;;4995758;28;20030;-77
2023/06/22 11:40:35;;;;;;;9.57;6.68;;;;;;;;;;5000868;28;20096;-79
2023/06/22 11:43:01;;;;;;;12.20;7.63;;;;;;;;;;5000139;28;20031;-79
2023/06/22 11:45:28;;;;;;;9.85;7.65;;;;;;;;;;4997494;28;20121;-79
2023/06/22 11:47:54;;;;;;;9.68;7.57;;;;;;;;;;5016417;28;20045;-80
2023/06/22 11:50:20;;;;;;;8.98;7.00;;;;;;;;;;5003752;28;20036;-77
2023/06/22 11:52:53;;;;;;;9.57;6.85;;;;;;;;;;4989720;28;20120;-82
2023/06/22 11:55:19;;;;;;;13.45;7.10;;;;;;;;;;5019850;28;20084;-78
2023/06/22 11:58:03;;;;;;;11.23;7.65;;;;;;;;;;5008573;28;20113;-79
2023/06/22 12:00:29;;;;;;;13.68;7.65;;;;;;;;;;5002302;28;20033;-76
2023/06/22 12:03:00;;;;;;;9.65;7.03;;;;;;;;;;5007648;28;20049;-80
2023/06/22 12:05:25;;;;;;;10.75;6.93;;;;;;;;;;4975619;28;20042;-80
2023/06/22 12:07:54;;;;;;;9.52;7.03;;;;;;;;;;4960055;28;20885;-80
2023/06/22 12:10:25;;;;;;;10.32;6.85;;;;;;;;;;4991664;28;20045;-82
2023/06/22 12:12:54;;;;;;;10.82;7.45;;;;;;;;;;4979476;28;20106;-79
2023/06/22 12:15:20;;;;;;;12.77;7.15;;;;;;;;;;4971013;28;20050;-78
2023/06/22 12:17:49;;;;;;;11.10;6.80;;;;;;;;;;4986021;28;20046;-83
2023/06/22 12:20:19;;;;;;;9.30;6.45;;;;;;;;;;4986985;28;20038;-81
2023/06/22 12:22:51;;;;;;;14.10;7.35;;;;;;;;;;4987492;28;20064;-81
2023/06/22 12:25:17;;;;;;;9.93;5.70;;;;;;;;;;4993678;28;20042;-80
2023/06/22 12:27:44;;;;;;;9.57;5.82;;;;;;;;;;4999591;28;20031;-83
2023/06/22 12:30:13;;;;;;;9.18;5.47;;;;;;;;;;4984118;28;20038;-78
2023/06/22 12:32:51;;;;;;;;;;;;;;;;;;;;;
2023/06/22 12:35:23;;;;;;;9.70;6.05;;;;;;;;;;5000142;28;20090;-81
2023/06/22 12:37:54;;;;;;;12.95;6.07;;;;;;;;;;4990286;28;20040;-79
2023/06/22 12:40:33;;;;;;;11.25;6.32;;;;;;;;;;5022661;28;20045;-80
2023/06/22 12:43:08;;;;;;;9.18;5.25;;;;;;;;;;5016689;28;20069;-81
2023/06/22 12:45:40;;;;;;;7.53;5.65;;;;;;;;;;5006684;28;20021;-81
2023/06/22 12:48:12;;;;;;;8.82;5.95;;;;;;;;;;5018747;28;20420;-81
2023/06/22 12:50:40;;;;;;;12.00;6.05;;;;;;;;;;4994857;28;20069;-82
2023/06/22 12:53:09;;;;;;;8.07;5.63;;;;;;;;;;5024616;28;20087;-79
2023/06/22 12:55:41;;;;;;;6.22;5.63;;;;;;;;;;5011595;28;20072;-82
2023/06/22 12:58:49;;;;;;;10.35;5.85;;;;;;;;;;5007651;28;20040;-79
2023/06/22 13:01:18;;;;;;;9.80;5.85;;;;;;;;;;5018615;28;20085;-86
2023/06/22 13:03:51;;;;;;;9.98;5.63;;;;;;;;;;5016717;28;20073;-81
2023/06/22 13:06:23;;;;;;;10.27;5.70;;;;;;;;;;5008299;28;20037;-84
2023/06/22 13:08:50;;;;;;;10.50;5.82;;;;;;;;;;5027519;28;20093;-84
2023/06/22 13:11:16;;;;;;;7.78;5.57;;;;;;;;;;5025594;28;20014;-79
2023/06/22 13:13:48;;;;;;;6.50;5.50;;;;;;;;;;5025697;28;20036;-82
2023/06/22 13:16:14;;;;;;;10.10;5.45;;;;;;;;;;5006298;28;20566;-82
2023/06/22 13:19:07;;;;;;;10.77;5.10;;;;;;;;;;5010488;28;20042;-83
2023/06/22 13:21:33;;;;;;;7.03;5.15;;;;;;;;;;5016361;28;20084;-83
2023/06/22 13:24:01;;;;;;;7.88;5.82;;;;;;;;;;5021966;28;20058;-85
2023/06/22 13:26:34;;;;;;;8.52;5.38;;;;;;;;;;5010960;28;20026;-83
2023/06/22 13:28:59;;;;;;;45.88;8.75;;;;;;;;;;5016349;28;20026;-83
2023/06/22 13:31:28;;;;;;;12.43;5.45;;;;;;;;;;5004496;28;20830;-83
2023/06/22 13:34:01;;;;;;;11.10;5.30;;;;;;;;;;5002317;28;20034;-83
2023/06/22 13:36:30;;;;;;;15.63;6.45;;;;;;;;;;5018028;28;20105;-84
2023/06/22 13:38:56;;;;;;;17.02;6.10;;;;;;;;;;5013767;28;20115;-82
2023/06/22 13:41:25;;;;;;;9.18;5.35;;;;;;;;;;5003588;28;20030;-83
2023/06/22 13:43:58;;;;;;;10.63;5.72;;;;;;;;;;4990281;28;20110;-81
2023/06/22 13:46:29;;;;;;;7.28;5.13;;;;;;;;;;5005227;28;20076;-84
2023/06/22 13:49:24;;;;;;;8.70;5.88;;;;;;;;;;5004432;28;20370;-82
2023/06/22 13:51:59;;;;;;;13.63;6.32;;;;;;;;;;5002574;28;20470;-84
2023/06/22 13:54:26;;;;;;;8.13;5.20;;;;;;;;;;5003018;28;20042;-79
2023/06/22 13:57:11;;;;;;;10.95;5.53;;;;;;;;;;5015642;28;20026;-82
2023/06/22 13:59:40;;;;;;;12.90;5.78;;;;;;;;;;5001328;28;20423;-81
2023/06/22 14:02:14;;;;;;;9.55;5.43;;;;;;;;;;5013078;28;20022;-83
2023/06/22 14:04:40;;;;;;;12.43;6.03;;;;;;;;;;5003187;28;20045;-81
2023/06/22 14:07:32;;;;;;;7.50;5.47;;;;;;;;;;5005814;28;20034;-82
2023/06/22 14:10:02;;;;;;;8.38;5.15;;;;;;;;;;5007686;28;20049;-83
2023/06/22 14:12:29;;;;;;;8.18;5.18;;;;;;;;;;5024484;28;20074;-83
2023/06/22 14:15:15;;;;;;;7.60;5.22;;;;;;;;;;5023856;28;20037;-83
2023/06/22 14:17:46;;;;;;;9.82;5.90;;;;;;;;;;5021098;28;20042;-83
2023/06/22 14:20:20;;;;;;;5.65;5.00;;;;;;;;;;5008080;28;20124;-80
2023/06/22 14:22:54;;;;;;;6.10;5.10;;;;;;;;;;5004248;28;20049;-81
2023/06/22 14:25:21;;;;;;;6.88;5.22;;;;;;;;;;5008847;28;20038;-84
2023/06/22 14:27:47;;;;;;;7.18;5.20;;;;;;;;;;5031638;28;20025;-83
2023/06/22 14:30:13;;;;;;;6.82;5.68;;;;;;;;;;5021786;28;20097;-83
2023/06/22 14:32:39;;;;;;;8.68;5.95;;;;;;;;;;5015755;28;20080;-82
2023/06/22 14:35:05;;;;;;;8.25;5.63;;;;;;;;;;5004446;28;20045;-84
2023/06/22 14:37:30;;;;;;;7.35;6.00;;;;;;;;;;5016130;28;20026;-82
2023/06/22 14:40:00;;;;;;;11.63;6.03;;;;;;;;;;5015793;28;20523;-83
2023/06/22 14:42:26;;;;;;;;;;;;;;;;;;5022884;28;20022;-82
2023/06/22 14:44:52;;;;;;;6.82;5.50;;;;;;;;;;5018389;28;19936;-85